sensor_id;sensor_type;location;lat;lon;timestamp;P1;durP1;ratioP1;P2;durP2;ratioP2
4595;SDS011;2310;49.978;8.742;2023-05-20T00:02:49;5.23;;;3.53;;
4595;SDS011;2310;49.978;8.742;2023-05-20T00:06:51;7.50;;;4.00;;
4595;SDS011;2310;49.978;8.742;2023-05-20T00:10:53;7.30;;;3.10;;
4595;SDS011;2310;49.978;8.742;2023-05-20T00:14:54;5.50;;;4.43;;
4595;SDS011;2310;49.978;8.742;2023-05-20T00:18:56;5.10;;;3.77;;
4595;SDS011;2310;49.978;8.742;2023-05-20T00:22:58;8.27;;;4.50;;
4595;SDS011;2310;49.978;8.742;2023-05-20T00:26:59;7.23;;;3.77;;
4595;SDS011;2310;49.978;8.742;2023-05-20T00:31:00;4.13;;;2.90;;
4595;SDS011;2310;49.978;8.742;2023-05-20T00:35:02;6.93;;;3.97;;
4595;SDS011;2310;49.978;8.742;2023-05-20T00:39:03;5.10;;;3.83;;
4595;SDS011;2310;49.978;8.742;2023-05-20T00:43:05;7.90;;;4.30;;
4595;SDS011;2310;49.978;8.742;2023-05-20T00:47:06;5.83;;;3.70;;
4595;SDS011;2310;49.978;8.742;2023-05-20T00:51:08;6.60;;;4.17;;
4595;SDS011;2310;49.978;8.742;2023-05-20T00:55:12;7.40;;;4.17;;
4595;SDS011;2310;49.978;8.742;2023-05-20T00:59:13;6.30;;;4.17;;
4595;SDS011;2310;49.978;8.742;2023-05-20T01:03:16;7.50;;;4.30;;
4595;SDS011;2310;49.978;8.742;2023-05-20T01:07:18;16.83;;;4.73;;
4595;SDS011;2310;49.978;8.742;2023-05-20T01:11:21;8.00;;;4.30;;
4595;SDS011;2310;49.978;8.742;2023-05-20T01:15:27;7.27;;;5.10;;
4595;SDS011;2310;49.978;8.742;2023-05-20T01:19:30;5.40;;;4.47;;
4595;SDS011;2310;49.978;8.742;2023-05-20T01:23:45;7.63;;;3.63;;
4595;SDS011;2310;49.978;8.742;2023-05-20T01:27:46;6.10;;;4.20;;
4595;SDS011;2310;49.978;8.742;2023-05-20T01:31:48;6.93;;;4.67;;
4595;SDS011;2310;49.978;8.742;2023-05-20T01:35:53;9.20;;;4.77;;
4595;SDS011;2310;49.978;8.742;2023-05-20T01:39:55;6.80;;;5.07;;
4595;SDS011;2310;49.978;8.742;2023-05-20T01:43:57;6.10;;;5.00;;
4595;SDS011;2310;49.978;8.742;2023-05-20T01:47:59;9.70;;;4.53;;
4595;SDS011;2310;49.978;8.742;2023-05-20T01:52:01;6.83;;;4.60;;
4595;SDS011;2310;49.978;8.742;2023-05-20T01:56:04;11.23;;;4.50;;
4595;SDS011;2310;49.978;8.742;2023-05-20T02:00:06;5.80;;;4.20;;
4595;SDS011;2310;49.978;8.742;2023-05-20T02:04:09;9.03;;;4.87;;
4595;SDS011;2310;49.978;8.742;2023-05-20T02:08:10;6.23;;;4.67;;
4595;SDS011;2310;49.978;8.742;2023-05-20T02:12:12;7.07;;;4.13;;
4595;SDS011;2310;49.978;8.742;2023-05-20T02:16:17;8.90;;;5.70;;
4595;SDS011;2310;49.978;8.742;2023-05-20T02:20:18;5.63;;;4.20;;
4595;SDS011;2310;49.978;8.742;2023-05-20T02:24:19;7.13;;;5.27;;
4595;SDS011;2310;49.978;8.742;2023-05-20T02:28:21;6.63;;;4.77;;
4595;SDS011;2310;49.978;8.742;2023-05-20T02:32:22;9.90;;;5.50;;
4595;SDS011;2310;49.978;8.742;2023-05-20T02:36:25;6.30;;;4.70;;
4595;SDS011;2310;49.978;8.742;2023-05-20T02:40:28;7.90;;;4.50;;
4595;SDS011;2310;49.978;8.742;2023-05-20T02:44:29;6.37;;;5.00;;
4595;SDS011;2310;49.978;8.742;2023-05-20T02:48:31;7.77;;;4.50;;
4595;SDS011;2310;49.978;8.742;2023-05-20T02:52:32;6.40;;;5.10;;
4595;SDS011;2310;49.978;8.742;2023-05-20T02:56:34;5.83;;;4.60;;
4595;SDS011;2310;49.978;8.742;2023-05-20T03:00:35;8.57;;;5.37;;
4595;SDS011;2310;49.978;8.742;2023-05-20T03:04:38;8.60;;;5.03;;
4595;SDS011;2310;49.978;8.742;2023-05-20T03:08:41;6.30;;;5.13;;
4595;SDS011;2310;49.978;8.742;2023-05-20T03:12:42;7.83;;;4.60;;
4595;SDS011;2310;49.978;8.742;2023-05-20T03:16:43;6.10;;;4.83;;
4595;SDS011;2310;49.978;8.742;2023-05-20T03:20:45;6.87;;;5.47;;
4595;SDS011;2310;49.978;8.742;2023-05-20T03:24:47;7.50;;;5.43;;
4595;SDS011;2310;49.978;8.742;2023-05-20T03:28:48;7.03;;;5.13;;
4595;SDS011;2310;49.978;8.742;2023-05-20T03:32:49;8.23;;;5.63;;
4595;SDS011;2310;49.978;8.742;2023-05-20T03:36:51;7.60;;;5.67;;
4595;SDS011;2310;49.978;8.742;2023-05-20T03:40:52;10.97;;;6.60;;
4595;SDS011;2310;49.978;8.742;2023-05-20T03:44:54;7.90;;;5.40;;
4595;SDS011;2310;49.978;8.742;2023-05-20T03:48:55;5.93;;;4.97;;
4595;SDS011;2310;49.978;8.742;2023-05-20T03:52:56;6.70;;;5.53;;
4595;SDS011;2310;49.978;8.742;2023-05-20T03:56:57;7.50;;;5.53;;
4595;SDS011;2310;49.978;8.742;2023-05-20T04:01:00;8.07;;;5.40;;
4595;SDS011;2310;49.978;8.742;2023-05-20T04:05:01;9.03;;;6.67;;
4595;SDS011;2310;49.978;8.742;2023-05-20T04:09:03;6.60;;;5.10;;
4595;SDS011;2310;49.978;8.742;2023-05-20T04:13:04;7.77;;;5.53;;
4595;SDS011;2310;49.978;8.742;2023-05-20T04:17:05;9.20;;;5.33;;
4595;SDS011;2310;49.978;8.742;2023-05-20T04:21:06;9.97;;;5.33;;
4595;SDS011;2310;49.978;8.742;2023-05-20T04:25:08;9.57;;;5.77;;
4595;SDS011;2310;49.978;8.742;2023-05-20T04:29:10;8.83;;;6.40;;
4595;SDS011;2310;49.978;8.742;2023-05-20T04:33:11;6.60;;;5.30;;
4595;SDS011;2310;49.978;8.742;2023-05-20T04:37:14;7.80;;;6.47;;
4595;SDS011;2310;49.978;8.742;2023-05-20T04:41:16;10.23;;;6.07;;
4595;SDS011;2310;49.978;8.742;2023-05-20T04:45:17;10.17;;;6.80;;
4595;SDS011;2310;49.978;8.742;2023-05-20T04:49:18;7.67;;;6.20;;
4595;SDS011;2310;49.978;8.742;2023-05-20T04:53:19;7.30;;;5.63;;
4595;SDS011;2310;49.978;8.742;2023-05-20T04:57:23;7.83;;;6.80;;
4595;SDS011;2310;49.978;8.742;2023-05-20T05:01:26;7.27;;;6.47;;
4595;SDS011;2310;49.978;8.742;2023-05-20T05:05:27;9.60;;;6.30;;
4595;SDS011;2310;49.978;8.742;2023-05-20T05:09:28;6.90;;;6.07;;
4595;SDS011;2310;49.978;8.742;2023-05-20T05:13:29;7.53;;;5.53;;
4595;SDS011;2310;49.978;8.742;2023-05-20T05:17:31;7.70;;;6.70;;
4595;SDS011;2310;49.978;8.742;2023-05-20T05:21:32;8.53;;;5.77;;
4595;SDS011;2310;49.978;8.742;2023-05-20T05:25:33;10.03;;;6.30;;
4595;SDS011;2310;49.978;8.742;2023-05-20T05:29:35;7.40;;;6.50;;
4595;SDS011;2310;49.978;8.742;2023-05-20T05:33:36;8.03;;;6.53;;
4595;SDS011;2310;49.978;8.742;2023-05-20T05:37:37;9.70;;;7.23;;
4595;SDS011;2310;49.978;8.742;2023-05-20T05:41:38;8.10;;;6.87;;
4595;SDS011;2310;49.978;8.742;2023-05-20T05:45:40;9.17;;;7.10;;
4595;SDS011;2310;49.978;8.742;2023-05-20T05:49:42;7.77;;;6.10;;
4595;SDS011;2310;49.978;8.742;2023-05-20T05:53:43;8.77;;;6.03;;
4595;SDS011;2310;49.978;8.742;2023-05-20T05:57:45;8.60;;;6.23;;
4595;SDS011;2310;49.978;8.742;2023-05-20T06:01:46;8.40;;;5.63;;
4595;SDS011;2310;49.978;8.742;2023-05-20T06:05:48;9.03;;;6.80;;
4595;SDS011;2310;49.978;8.742;2023-05-20T06:09:49;9.63;;;6.00;;
4595;SDS011;2310;49.978;8.742;2023-05-20T06:13:50;8.60;;;7.13;;
4595;SDS011;2310;49.978;8.742;2023-05-20T06:17:52;7.60;;;6.80;;
4595;SDS011;2310;49.978;8.742;2023-05-20T06:21:54;8.70;;;7.40;;
4595;SDS011;2310;49.978;8.742;2023-05-20T06:25:57;8.13;;;7.33;;
4595;SDS011;2310;49.978;8.742;2023-05-20T06:29:59;10.63;;;7.30;;
4595;SDS011;2310;49.978;8.742;2023-05-20T06:34:00;9.50;;;6.70;;
4595;SDS011;2310;49.978;8.742;2023-05-20T06:38:01;8.50;;;6.27;;
4595;SDS011;2310;49.978;8.742;2023-05-20T06:42:03;10.37;;;7.73;;
4595;SDS011;2310;49.978;8.742;2023-05-20T06:46:04;7.57;;;6.73;;
4595;SDS011;2310;49.978;8.742;2023-05-20T06:50:06;9.20;;;8.30;;
4595;SDS011;2310;49.978;8.742;2023-05-20T06:54:08;9.70;;;8.00;;
4595;SDS011;2310;49.978;8.742;2023-05-20T06:58:09;9.87;;;7.83;;
4595;SDS011;2310;49.978;8.742;2023-05-20T07:02:11;10.80;;;8.53;;
4595;SDS011;2310;49.978;8.742;2023-05-20T07:06:12;10.00;;;7.63;;
4595;SDS011;2310;49.978;8.742;2023-05-20T07:10:13;10.40;;;8.63;;
4595;SDS011;2310;49.978;8.742;2023-05-20T07:14:14;9.97;;;8.37;;
4595;SDS011;2310;49.978;8.742;2023-05-20T07:18:16;10.63;;;7.87;;
4595;SDS011;2310;49.978;8.742;2023-05-20T07:22:17;9.83;;;8.00;;
4595;SDS011;2310;49.978;8.742;2023-05-20T07:26:18;12.30;;;7.97;;
4595;SDS011;2310;49.978;8.742;2023-05-20T07:30:19;9.93;;;7.10;;
4595;SDS011;2310;49.978;8.742;2023-05-20T07:34:21;10.70;;;8.90;;
4595;SDS011;2310;49.978;8.742;2023-05-20T07:38:22;10.57;;;9.47;;
4595;SDS011;2310;49.978;8.742;2023-05-20T07:42:23;9.90;;;7.83;;
4595;SDS011;2310;49.978;8.742;2023-05-20T07:46:25;9.87;;;8.60;;
4595;SDS011;2310;49.978;8.742;2023-05-20T07:50:26;9.40;;;8.50;;
4595;SDS011;2310;49.978;8.742;2023-05-20T07:54:27;11.30;;;9.70;;
4595;SDS011;2310;49.978;8.742;2023-05-20T07:58:30;12.00;;;8.70;;
4595;SDS011;2310;49.978;8.742;2023-05-20T08:02:31;9.47;;;8.57;;
4595;SDS011;2310;49.978;8.742;2023-05-20T08:06:32;11.40;;;8.80;;
4595;SDS011;2310;49.978;8.742;2023-05-20T08:10:35;11.73;;;8.50;;
4595;SDS011;2310;49.978;8.742;2023-05-20T08:14:36;13.07;;;9.00;;
4595;SDS011;2310;49.978;8.742;2023-05-20T08:18:38;10.40;;;8.70;;
4595;SDS011;2310;49.978;8.742;2023-05-20T08:22:39;10.03;;;8.67;;
4595;SDS011;2310;49.978;8.742;2023-05-20T08:26:41;9.93;;;8.93;;
4595;SDS011;2310;49.978;8.742;2023-05-20T08:30:42;9.13;;;7.80;;
4595;SDS011;2310;49.978;8.742;2023-05-20T08:34:43;9.97;;;7.17;;
4595;SDS011;2310;49.978;8.742;2023-05-20T08:38:44;8.97;;;7.60;;
4595;SDS011;2310;49.978;8.742;2023-05-20T08:42:47;13.20;;;10.03;;
4595;SDS011;2310;49.978;8.742;2023-05-20T08:46:49;9.53;;;8.17;;
4595;SDS011;2310;49.978;8.742;2023-05-20T08:50:52;11.43;;;10.27;;
4595;SDS011;2310;49.978;8.742;2023-05-20T08:54:57;11.17;;;8.73;;
4595;SDS011;2310;49.978;8.742;2023-05-20T08:58:59;11.23;;;9.60;;
4595;SDS011;2310;49.978;8.742;2023-05-20T09:03:00;10.33;;;9.30;;
4595;SDS011;2310;49.978;8.742;2023-05-20T09:07:02;10.37;;;9.27;;
4595;SDS011;2310;49.978;8.742;2023-05-20T09:11:03;10.87;;;9.40;;
4595;SDS011;2310;49.978;8.742;2023-05-20T09:15:05;11.00;;;9.90;;
4595;SDS011;2310;49.978;8.742;2023-05-20T09:19:07;10.67;;;9.67;;
4595;SDS011;2310;49.978;8.742;2023-05-20T09:23:10;11.20;;;9.80;;
4595;SDS011;2310;49.978;8.742;2023-05-20T09:27:11;11.70;;;9.20;;
4595;SDS011;2310;49.978;8.742;2023-05-20T09:31:13;11.27;;;10.10;;
4595;SDS011;2310;49.978;8.742;2023-05-20T09:35:14;11.77;;;9.40;;
4595;SDS011;2310;49.978;8.742;2023-05-20T09:39:17;10.20;;;9.17;;
4595;SDS011;2310;49.978;8.742;2023-05-20T09:43:22;10.80;;;9.70;;
4595;SDS011;2310;49.978;8.742;2023-05-20T09:47:23;10.00;;;9.00;;
4595;SDS011;2310;49.978;8.742;2023-05-20T09:51:26;13.93;;;9.80;;
4595;SDS011;2310;49.978;8.742;2023-05-20T09:55:29;10.30;;;9.20;;
4595;SDS011;2310;49.978;8.742;2023-05-20T09:59:31;10.27;;;9.20;;
4595;SDS011;2310;49.978;8.742;2023-05-20T10:03:35;9.63;;;8.73;;
4595;SDS011;2310;49.978;8.742;2023-05-20T10:12:09;12.23;;;11.07;;
4595;SDS011;2310;49.978;8.742;2023-05-20T10:20:45;10.00;;;8.97;;
4595;SDS011;2310;49.978;8.742;2023-05-20T10:24:48;9.80;;;8.90;;
4595;SDS011;2310;49.978;8.742;2023-05-20T10:28:53;8.90;;;8.00;;
4595;SDS011;2310;49.978;8.742;2023-05-20T10:32:56;12.00;;;9.53;;
4595;SDS011;2310;49.978;8.742;2023-05-20T10:37:00;10.70;;;9.60;;
4595;SDS011;2310;49.978;8.742;2023-05-20T10:41:08;9.47;;;8.57;;
4595;SDS011;2310;49.978;8.742;2023-05-20T10:45:23;10.40;;;8.50;;
4595;SDS011;2310;49.978;8.742;2023-05-20T10:49:25;14.13;;;10.00;;
4595;SDS011;2310;49.978;8.742;2023-05-20T10:53:40;12.47;;;9.60;;
4595;SDS011;2310;49.978;8.742;2023-05-20T10:57:44;10.37;;;9.47;;
4595;SDS011;2310;49.978;8.742;2023-05-20T11:01:46;9.70;;;8.80;;
4595;SDS011;2310;49.978;8.742;2023-05-20T11:05:48;9.93;;;8.97;;
4595;SDS011;2310;49.978;8.742;2023-05-20T11:09:51;9.60;;;8.67;;
4595;SDS011;2310;49.978;8.742;2023-05-20T11:13:52;12.63;;;11.43;;
4595;SDS011;2310;49.978;8.742;2023-05-20T11:17:53;10.87;;;9.83;;
4595;SDS011;2310;49.978;8.742;2023-05-20T11:21:56;11.13;;;10.00;;
4595;SDS011;2310;49.978;8.742;2023-05-20T11:25:57;11.10;;;10.00;;
4595;SDS011;2310;49.978;8.742;2023-05-20T11:29:58;9.57;;;8.67;;
4595;SDS011;2310;49.978;8.742;2023-05-20T11:33:59;11.80;;;10.67;;
4595;SDS011;2310;49.978;8.742;2023-05-20T11:38:06;11.67;;;10.47;;
4595;SDS011;2310;49.978;8.742;2023-05-20T11:42:06;11.60;;;10.50;;
4595;SDS011;2310;49.978;8.742;2023-05-20T11:46:07;12.03;;;10.93;;
4595;SDS011;2310;49.978;8.742;2023-05-20T11:50:09;11.37;;;10.23;;
4595;SDS011;2310;49.978;8.742;2023-05-20T11:54:13;10.53;;;9.53;;
4595;SDS011;2310;49.978;8.742;2023-05-20T11:58:24;9.53;;;8.63;;
4595;SDS011;2310;49.978;8.742;2023-05-20T12:02:20;10.87;;;9.77;;
4595;SDS011;2310;49.978;8.742;2023-05-20T12:06:22;10.63;;;9.63;;
4595;SDS011;2310;49.978;8.742;2023-05-20T12:10:23;12.07;;;10.97;;
4595;SDS011;2310;49.978;8.742;2023-05-20T12:14:24;11.40;;;10.40;;
4595;SDS011;2310;49.978;8.742;2023-05-20T12:18:25;10.57;;;9.60;;
4595;SDS011;2310;49.978;8.742;2023-05-20T12:22:27;12.47;;;11.17;;
4595;SDS011;2310;49.978;8.742;2023-05-20T12:26:28;20.47;;;17.70;;
4595;SDS011;2310;49.978;8.742;2023-05-20T12:30:29;12.00;;;10.80;;
4595;SDS011;2310;49.978;8.742;2023-05-20T12:34:31;14.27;;;11.00;;
4595;SDS011;2310;49.978;8.742;2023-05-20T12:38:33;11.80;;;10.60;;
4595;SDS011;2310;49.978;8.742;2023-05-20T12:42:34;13.83;;;12.40;;
4595;SDS011;2310;49.978;8.742;2023-05-20T12:51:15;11.50;;;10.40;;
4595;SDS011;2310;49.978;8.742;2023-05-20T12:55:16;12.67;;;11.57;;
4595;SDS011;2310;49.978;8.742;2023-05-20T12:59:18;11.70;;;10.60;;
4595;SDS011;2310;49.978;8.742;2023-05-20T13:03:19;12.87;;;11.73;;
4595;SDS011;2310;49.978;8.742;2023-05-20T13:07:20;11.90;;;10.80;;
4595;SDS011;2310;49.978;8.742;2023-05-20T13:11:22;25.03;;;14.33;;
4595;SDS011;2310;49.978;8.742;2023-05-20T13:15:23;12.57;;;11.37;;
4595;SDS011;2310;49.978;8.742;2023-05-20T13:19:24;12.93;;;11.63;;
4595;SDS011;2310;49.978;8.742;2023-05-20T13:23:25;12.80;;;11.60;;
4595;SDS011;2310;49.978;8.742;2023-05-20T13:27:27;13.00;;;11.90;;
4595;SDS011;2310;49.978;8.742;2023-05-20T13:31:28;12.37;;;11.17;;
4595;SDS011;2310;49.978;8.742;2023-05-20T13:35:30;13.67;;;12.37;;
4595;SDS011;2310;49.978;8.742;2023-05-20T13:39:31;12.57;;;11.30;;
4595;SDS011;2310;49.978;8.742;2023-05-20T13:43:32;13.30;;;11.90;;
4595;SDS011;2310;49.978;8.742;2023-05-20T13:47:33;13.00;;;11.80;;
4595;SDS011;2310;49.978;8.742;2023-05-20T13:51:35;13.63;;;12.43;;
4595;SDS011;2310;49.978;8.742;2023-05-20T13:55:37;13.90;;;12.60;;
4595;SDS011;2310;49.978;8.742;2023-05-20T13:59:38;13.40;;;11.83;;
4595;SDS011;2310;49.978;8.742;2023-05-20T14:03:40;15.70;;;12.20;;
4595;SDS011;2310;49.978;8.742;2023-05-20T14:07:42;13.87;;;12.67;;
4595;SDS011;2310;49.978;8.742;2023-05-20T14:11:43;13.03;;;11.37;;
4595;SDS011;2310;49.978;8.742;2023-05-20T14:15:45;13.37;;;12.17;;
4595;SDS011;2310;49.978;8.742;2023-05-20T14:19:46;14.37;;;12.83;;
4595;SDS011;2310;49.978;8.742;2023-05-20T14:23:47;16.00;;;13.57;;
4595;SDS011;2310;49.978;8.742;2023-05-20T14:27:49;13.93;;;12.47;;
4595;SDS011;2310;49.978;8.742;2023-05-20T14:31:50;15.53;;;13.83;;
4595;SDS011;2310;49.978;8.742;2023-05-20T14:35:51;14.20;;;11.77;;
4595;SDS011;2310;49.978;8.742;2023-05-20T14:39:53;14.30;;;12.80;;
4595;SDS011;2310;49.978;8.742;2023-05-20T14:43:55;14.20;;;12.80;;
4595;SDS011;2310;49.978;8.742;2023-05-20T14:47:56;15.57;;;13.87;;
4595;SDS011;2310;49.978;8.742;2023-05-20T14:51:57;14.60;;;13.27;;
4595;SDS011;2310;49.978;8.742;2023-05-20T14:55:58;16.27;;;14.77;;
4595;SDS011;2310;49.978;8.742;2023-05-20T15:00:00;14.97;;;13.53;;
4595;SDS011;2310;49.978;8.742;2023-05-20T15:04:02;13.63;;;12.33;;
4595;SDS011;2310;49.978;8.742;2023-05-20T15:08:03;15.87;;;14.23;;
4595;SDS011;2310;49.978;8.742;2023-05-20T15:12:04;15.60;;;12.73;;
4595;SDS011;2310;49.978;8.742;2023-05-20T15:16:06;14.30;;;12.90;;
4595;SDS011;2310;49.978;8.742;2023-05-20T15:20:08;15.60;;;14.20;;
4595;SDS011;2310;49.978;8.742;2023-05-20T15:24:10;14.30;;;12.90;;
4595;SDS011;2310;49.978;8.742;2023-05-20T15:28:11;13.00;;;11.80;;
4595;SDS011;2310;49.978;8.742;2023-05-20T15:32:12;22.13;;;19.93;;
4595;SDS011;2310;49.978;8.742;2023-05-20T15:36:14;20.93;;;18.70;;
4595;SDS011;2310;49.978;8.742;2023-05-20T15:40:16;14.57;;;13.07;;
4595;SDS011;2310;49.978;8.742;2023-05-20T15:44:17;15.90;;;14.40;;
4595;SDS011;2310;49.978;8.742;2023-05-20T15:48:19;17.10;;;15.50;;
4595;SDS011;2310;49.978;8.742;2023-05-20T15:52:20;16.37;;;12.73;;
4595;SDS011;2310;49.978;8.742;2023-05-20T15:56:22;15.30;;;13.80;;
4595;SDS011;2310;49.978;8.742;2023-05-20T16:00:23;15.53;;;13.87;;
4595;SDS011;2310;49.978;8.742;2023-05-20T16:04:24;15.00;;;13.50;;
4595;SDS011;2310;49.978;8.742;2023-05-20T16:08:26;16.10;;;14.20;;
4595;SDS011;2310;49.978;8.742;2023-05-20T16:12:29;15.23;;;13.73;;
4595;SDS011;2310;49.978;8.742;2023-05-20T16:16:30;15.10;;;13.70;;
4595;SDS011;2310;49.978;8.742;2023-05-20T16:20:31;16.50;;;14.80;;
4595;SDS011;2310;49.978;8.742;2023-05-20T16:24:33;16.20;;;14.80;;
4595;SDS011;2310;49.978;8.742;2023-05-20T16:28:34;15.27;;;13.67;;
4595;SDS011;2310;49.978;8.742;2023-05-20T16:32:35;15.50;;;14.00;;
4595;SDS011;2310;49.978;8.742;2023-05-20T16:36:37;16.00;;;14.37;;
4595;SDS011;2310;49.978;8.742;2023-05-20T16:40:38;13.57;;;12.27;;
4595;SDS011;2310;49.978;8.742;2023-05-20T16:44:40;14.47;;;13.07;;
4595;SDS011;2310;49.978;8.742;2023-05-20T16:48:41;14.83;;;13.33;;
4595;SDS011;2310;49.978;8.742;2023-05-20T16:52:42;16.93;;;15.23;;
4595;SDS011;2310;49.978;8.742;2023-05-20T16:56:43;16.20;;;14.70;;
4595;SDS011;2310;49.978;8.742;2023-05-20T17:00:45;15.23;;;13.80;;
4595;SDS011;2310;49.978;8.742;2023-05-20T17:04:46;16.33;;;14.73;;
4595;SDS011;2310;49.978;8.742;2023-05-20T17:08:48;16.33;;;14.63;;
4595;SDS011;2310;49.978;8.742;2023-05-20T17:12:49;16.73;;;15.10;;
4595;SDS011;2310;49.978;8.742;2023-05-20T17:16:50;16.87;;;15.27;;
4595;SDS011;2310;49.978;8.742;2023-05-20T17:20:52;16.90;;;14.80;;
4595;SDS011;2310;49.978;8.742;2023-05-20T17:24:53;20.77;;;18.77;;
4595;SDS011;2310;49.978;8.742;2023-05-20T17:28:54;18.23;;;16.33;;
4595;SDS011;2310;49.978;8.742;2023-05-20T17:32:55;17.30;;;15.50;;
4595;SDS011;2310;49.978;8.742;2023-05-20T17:36:57;16.77;;;15.07;;
4595;SDS011;2310;49.978;8.742;2023-05-20T17:40:58;17.00;;;15.30;;
4595;SDS011;2310;49.978;8.742;2023-05-20T17:45:00;17.37;;;15.77;;
4595;SDS011;2310;49.978;8.742;2023-05-20T17:49:01;17.90;;;15.93;;
4595;SDS011;2310;49.978;8.742;2023-05-20T17:53:02;19.87;;;17.97;;
4595;SDS011;2310;49.978;8.742;2023-05-20T17:57:03;17.70;;;15.93;;
4595;SDS011;2310;49.978;8.742;2023-05-20T18:01:05;17.33;;;15.60;;
4595;SDS011;2310;49.978;8.742;2023-05-20T18:05:08;19.33;;;16.53;;
4595;SDS011;2310;49.978;8.742;2023-05-20T18:09:12;19.40;;;17.40;;
4595;SDS011;2310;49.978;8.742;2023-05-20T18:13:13;19.50;;;17.60;;
4595;SDS011;2310;49.978;8.742;2023-05-20T18:17:14;18.37;;;16.47;;
4595;SDS011;2310;49.978;8.742;2023-05-20T18:21:16;18.60;;;16.90;;
4595;SDS011;2310;49.978;8.742;2023-05-20T18:25:17;23.60;;;17.97;;
4595;SDS011;2310;49.978;8.742;2023-05-20T18:29:18;18.77;;;16.27;;
4595;SDS011;2310;49.978;8.742;2023-05-20T18:33:22;20.33;;;18.23;;
4595;SDS011;2310;49.978;8.742;2023-05-20T18:37:24;20.27;;;18.37;;
4595;SDS011;2310;49.978;8.742;2023-05-20T18:41:27;20.60;;;18.43;;
4595;SDS011;2310;49.978;8.742;2023-05-20T18:45:30;21.37;;;19.10;;
4595;SDS011;2310;49.978;8.742;2023-05-20T18:49:31;23.90;;;18.80;;
4595;SDS011;2310;49.978;8.742;2023-05-20T18:53:33;20.07;;;17.97;;
4595;SDS011;2310;49.978;8.742;2023-05-20T18:57:34;22.93;;;20.73;;
4595;SDS011;2310;49.978;8.742;2023-05-20T19:01:35;23.87;;;17.73;;
4595;SDS011;2310;49.978;8.742;2023-05-20T19:05:37;24.23;;;19.73;;
4595;SDS011;2310;49.978;8.742;2023-05-20T19:09:39;21.13;;;18.83;;
4595;SDS011;2310;49.978;8.742;2023-05-20T19:13:40;21.47;;;19.20;;
4595;SDS011;2310;49.978;8.742;2023-05-20T19:17:41;20.03;;;17.47;;
4595;SDS011;2310;49.978;8.742;2023-05-20T19:21:42;24.97;;;20.67;;
4595;SDS011;2310;49.978;8.742;2023-05-20T19:25:44;20.77;;;18.60;;
4595;SDS011;2310;49.978;8.742;2023-05-20T19:29:45;20.77;;;18.67;;
4595;SDS011;2310;49.978;8.742;2023-05-20T19:33:47;21.13;;;19.03;;
4595;SDS011;2310;49.978;8.742;2023-05-20T19:37:48;19.10;;;17.10;;
4595;SDS011;2310;49.978;8.742;2023-05-20T19:41:50;21.50;;;19.27;;
4595;SDS011;2310;49.978;8.742;2023-05-20T19:45:52;22.60;;;20.30;;
4595;SDS011;2310;49.978;8.742;2023-05-20T19:49:54;22.90;;;19.27;;
4595;SDS011;2310;49.978;8.742;2023-05-20T19:53:56;22.67;;;17.63;;
4595;SDS011;2310;49.978;8.742;2023-05-20T19:57:57;21.20;;;18.97;;
4595;SDS011;2310;49.978;8.742;2023-05-20T20:01:58;22.70;;;20.40;;
4595;SDS011;2310;49.978;8.742;2023-05-20T20:06:02;22.87;;;19.80;;
4595;SDS011;2310;49.978;8.742;2023-05-20T20:10:03;22.20;;;19.80;;
4595;SDS011;2310;49.978;8.742;2023-05-20T20:14:05;21.17;;;18.53;;
4595;SDS011;2310;49.978;8.742;2023-05-20T20:18:11;20.93;;;18.83;;
4595;SDS011;2310;49.978;8.742;2023-05-20T20:22:14;21.67;;;19.17;;
4595;SDS011;2310;49.978;8.742;2023-05-20T20:26:16;23.03;;;20.37;;
4595;SDS011;2310;49.978;8.742;2023-05-20T20:30:17;25.10;;;21.77;;
4595;SDS011;2310;49.978;8.742;2023-05-20T20:34:21;25.00;;;22.37;;
4595;SDS011;2310;49.978;8.742;2023-05-20T20:38:22;22.13;;;19.93;;
4595;SDS011;2310;49.978;8.742;2023-05-20T20:42:23;23.43;;;21.00;;
4595;SDS011;2310;49.978;8.742;2023-05-20T20:46:26;25.77;;;22.47;;
4595;SDS011;2310;49.978;8.742;2023-05-20T20:50:27;22.10;;;19.70;;
4595;SDS011;2310;49.978;8.742;2023-05-20T20:54:28;21.33;;;18.97;;
4595;SDS011;2310;49.978;8.742;2023-05-20T20:58:30;25.17;;;20.83;;
4595;SDS011;2310;49.978;8.742;2023-05-20T21:02:33;23.13;;;20.70;;
4595;SDS011;2310;49.978;8.742;2023-05-20T21:06:34;24.03;;;21.37;;
4595;SDS011;2310;49.978;8.742;2023-05-20T21:10:37;24.20;;;21.40;;
4595;SDS011;2310;49.978;8.742;2023-05-20T21:14:38;22.70;;;19.47;;
4595;SDS011;2310;49.978;8.742;2023-05-20T21:18:40;23.80;;;21.27;;
4595;SDS011;2310;49.978;8.742;2023-05-20T21:22:41;22.20;;;19.93;;
4595;SDS011;2310;49.978;8.742;2023-05-20T21:26:42;24.03;;;21.53;;
4595;SDS011;2310;49.978;8.742;2023-05-20T21:30:43;22.17;;;19.80;;
4595;SDS011;2310;49.978;8.742;2023-05-20T21:34:44;23.47;;;20.53;;
4595;SDS011;2310;49.978;8.742;2023-05-20T21:38:46;24.87;;;22.27;;
4595;SDS011;2310;49.978;8.742;2023-05-20T21:42:47;21.57;;;19.27;;
4595;SDS011;2310;49.978;8.742;2023-05-20T21:46:48;22.90;;;18.90;;
4595;SDS011;2310;49.978;8.742;2023-05-20T21:50:50;22.63;;;18.43;;
4595;SDS011;2310;49.978;8.742;2023-05-20T21:54:51;23.90;;;21.40;;
4595;SDS011;2310;49.978;8.742;2023-05-20T21:58:52;23.63;;;18.83;;
4595;SDS011;2310;49.978;8.742;2023-05-20T22:02:53;27.70;;;22.17;;
4595;SDS011;2310;49.978;8.742;2023-05-20T22:06:55;22.03;;;19.63;;
4595;SDS011;2310;49.978;8.742;2023-05-20T22:10:56;27.20;;;20.50;;
4595;SDS011;2310;49.978;8.742;2023-05-20T22:14:59;24.60;;;20.20;;
4595;SDS011;2310;49.978;8.742;2023-05-20T22:19:00;24.13;;;20.70;;
4595;SDS011;2310;49.978;8.742;2023-05-20T22:23:02;23.40;;;19.30;;
4595;SDS011;2310;49.978;8.742;2023-05-20T22:27:04;21.70;;;19.40;;
4595;SDS011;2310;49.978;8.742;2023-05-20T22:31:05;25.13;;;19.90;;
4595;SDS011;2310;49.978;8.742;2023-05-20T22:35:07;24.03;;;21.50;;
4595;SDS011;2310;49.978;8.742;2023-05-20T22:39:09;23.10;;;19.70;;
4595;SDS011;2310;49.978;8.742;2023-05-20T22:43:12;28.30;;;20.53;;
4595;SDS011;2310;49.978;8.742;2023-05-20T22:47:13;27.37;;;19.40;;
4595;SDS011;2310;49.978;8.742;2023-05-20T22:51:15;22.53;;;19.57;;
4595;SDS011;2310;49.978;8.742;2023-05-20T22:55:16;25.20;;;21.90;;
4595;SDS011;2310;49.978;8.742;2023-05-20T22:59:17;21.87;;;19.23;;
4595;SDS011;2310;49.978;8.742;2023-05-20T23:03:19;22.70;;;19.70;;
4595;SDS011;2310;49.978;8.742;2023-05-20T23:07:20;25.50;;;20.07;;
4595;SDS011;2310;49.978;8.742;2023-05-20T23:11:21;22.70;;;18.63;;
4595;SDS011;2310;49.978;8.742;2023-05-20T23:15:23;21.80;;;19.50;;
4595;SDS011;2310;49.978;8.742;2023-05-20T23:19:25;23.20;;;17.80;;
4595;SDS011;2310;49.978;8.742;2023-05-20T23:23:26;21.70;;;19.30;;
4595;SDS011;2310;49.978;8.742;2023-05-20T23:27:31;24.60;;;19.93;;
4595;SDS011;2310;49.978;8.742;2023-05-20T23:31:33;23.17;;;20.30;;
4595;SDS011;2310;49.978;8.742;2023-05-20T23:35:34;20.33;;;17.20;;
4595;SDS011;2310;49.978;8.742;2023-05-20T23:39:36;21.03;;;17.13;;
4595;SDS011;2310;49.978;8.742;2023-05-20T23:43:37;21.37;;;18.90;;
4595;SDS011;2310;49.978;8.742;2023-05-20T23:47:39;21.60;;;19.30;;
4595;SDS011;2310;49.978;8.742;2023-05-20T23:51:40;21.77;;;18.47;;
4595;SDS011;2310;49.978;8.742;2023-05-20T23:55:41;22.63;;;19.00;;
4595;SDS011;2310;49.978;8.742;2023-05-20T23:59:45;20.77;;;18.67;;
